createdAt,value
2018-01-18T00:00:16.791Z,6.40
2018-01-18T00:01:16.773Z,5.10
2018-01-18T00:02:16.752Z,6.30
2018-01-18T00:03:16.729Z,6.00
2018-01-18T00:04:16.702Z,5.00
2018-01-18T00:05:16.680Z,6.30
2018-01-18T00:06:16.664Z,6.40
2018-01-18T00:07:16.644Z,6.30
2018-01-18T00:08:16.614Z,6.00
2018-01-18T00:09:16.591Z,6.30
2018-01-18T00:10:16.572Z,6.70
2018-01-18T00:11:16.546Z,6.20
2018-01-18T00:12:16.520Z,6.00
2018-01-18T00:13:16.501Z,5.00
2018-01-18T00:14:16.480Z,5.40
2018-01-18T00:15:16.454Z,5.20
2018-01-18T00:16:16.429Z,6.20
2018-01-18T00:17:16.410Z,5.70
2018-01-18T00:18:16.389Z,6.30
2018-01-18T00:19:16.369Z,5.80
2018-01-18T00:20:16.340Z,5.60
2018-01-18T00:21:16.319Z,6.50
2018-01-18T00:22:16.297Z,5.80
2018-01-18T00:23:16.281Z,6.60
2018-01-18T00:24:16.250Z,6.00
2018-01-18T00:25:16.230Z,5.50
2018-01-18T00:26:16.211Z,6.30
2018-01-18T00:27:16.195Z,6.50
2018-01-18T00:28:16.165Z,6.70
2018-01-18T00:29:16.140Z,6.20
2018-01-18T00:30:16.123Z,6.40
2018-01-18T00:31:16.098Z,5.80
2018-01-18T00:32:16.078Z,5.40
2018-01-18T00:33:16.070Z,6.10
2018-01-18T00:34:16.029Z,7.80
2018-01-18T00:35:16.030Z,5.80
2018-01-18T00:36:15.985Z,6.60
2018-01-18T00:37:15.966Z,6.50
2018-01-18T00:38:15.939Z,5.60
2018-01-18T00:39:15.931Z,6.00
2018-01-18T00:40:15.898Z,7.00
2018-01-18T00:41:15.971Z,5.70
2018-01-18T00:42:15.850Z,6.20
2018-01-18T00:43:15.830Z,6.60
2018-01-18T00:44:15.813Z,6.40
2018-01-18T00:45:15.789Z,6.10
2018-01-18T00:46:15.760Z,6.00
2018-01-18T00:47:15.787Z,5.70
2018-01-18T00:48:15.720Z,5.90
2018-01-18T00:49:15.764Z,6.00
2018-01-18T00:50:15.679Z,6.00
2018-01-18T00:51:15.664Z,5.60
2018-01-18T00:52:15.630Z,5.20
2018-01-18T00:53:15.731Z,5.80
2018-01-18T00:54:15.586Z,6.00
2018-01-18T00:55:15.571Z,4.90
2018-01-18T00:56:15.539Z,5.30
2018-01-18T00:57:15.620Z,5.30
2018-01-18T00:58:15.497Z,6.60
2018-01-18T00:59:15.483Z,5.80
2018-01-18T01:00:15.448Z,5.40
2018-01-18T01:01:15.430Z,6.30
2018-01-18T01:02:15.407Z,6.00
2018-01-18T01:03:15.383Z,6.00
2018-01-18T01:04:15.361Z,6.40
2018-01-18T01:05:15.339Z,6.80
2018-01-18T01:06:15.321Z,6.90
2018-01-18T01:07:15.293Z,5.80
2018-01-18T01:08:15.268Z,5.80
2018-01-18T01:09:15.249Z,5.20
2018-01-18T01:10:15.229Z,6.00
2018-01-18T01:11:15.203Z,6.90
2018-01-18T01:12:15.179Z,5.60
2018-01-18T01:13:15.160Z,6.40
2018-01-18T01:14:15.140Z,5.70
2018-01-18T01:15:15.120Z,6.00
2018-01-18T01:16:15.089Z,6.20
2018-01-18T01:17:15.069Z,6.40
2018-01-18T01:18:15.044Z,5.60
2018-01-18T01:19:15.025Z,5.80
2018-01-18T01:20:15.002Z,6.00
2018-01-18T01:21:14.980Z,5.10
2018-01-18T01:22:14.963Z,6.40
2018-01-18T01:23:14.940Z,6.70
2018-01-18T01:24:14.912Z,6.50
2018-01-18T01:25:14.889Z,6.00
2018-01-18T01:26:14.869Z,6.30
2018-01-18T01:27:14.845Z,5.70
2018-01-18T01:28:14.823Z,5.70
2018-01-18T01:29:14.801Z,5.70
2018-01-18T01:30:14.779Z,6.10
2018-01-18T01:31:14.762Z,5.90
2018-01-18T01:32:14.739Z,6.20
2018-01-18T01:33:14.713Z,6.70
2018-01-18T01:34:14.690Z,6.10
2018-01-18T01:35:14.670Z,5.80
2018-01-18T01:36:14.650Z,5.70
2018-01-18T01:37:14.630Z,5.90
2018-01-18T01:38:14.599Z,5.70
2018-01-18T01:39:14.581Z,6.60
2018-01-18T01:40:14.559Z,6.00
2018-01-18T01:41:14.544Z,6.70
2018-01-18T01:42:14.515Z,5.50
2018-01-18T01:43:14.491Z,5.30
2018-01-18T01:44:14.480Z,5.70
2018-01-18T01:45:14.450Z,6.30
2018-01-18T01:46:14.427Z,5.70
2018-01-18T01:47:14.407Z,5.70
2018-01-18T01:48:14.382Z,6.70
2018-01-18T01:49:14.359Z,6.60
2018-01-18T01:50:14.341Z,5.40
2018-01-18T01:51:14.317Z,6.40
2018-01-18T01:52:14.293Z,6.40
2018-01-18T01:53:14.270Z,7.20
2018-01-18T01:54:14.247Z,6.70
2018-01-18T01:55:14.231Z,6.80
2018-01-18T01:56:14.205Z,6.60
2018-01-18T01:57:14.208Z,5.80
2018-01-18T01:58:14.158Z,5.90
2018-01-18T01:59:14.135Z,6.30
2018-01-18T02:00:14.119Z,6.50
2018-01-18T02:01:14.102Z,6.60
2018-01-18T02:02:14.073Z,6.20
2018-01-18T02:03:14.050Z,7.40
2018-01-18T02:04:14.023Z,7.00
2018-01-18T02:05:14.008Z,6.30
2018-01-18T02:06:13.981Z,5.60
2018-01-18T02:07:13.956Z,6.50
2018-01-18T02:08:13.935Z,6.70
2018-01-18T02:09:13.922Z,6.80
2018-01-18T02:10:13.901Z,5.40
2018-01-18T02:11:13.869Z,6.50
2018-01-18T02:12:13.853Z,7.10
2018-01-18T02:13:13.831Z,6.20
2018-01-18T02:14:13.803Z,6.00
2018-01-18T02:15:13.779Z,6.60
2018-01-18T02:16:13.760Z,6.80
2018-01-18T02:17:13.744Z,6.30
2018-01-18T02:18:13.713Z,6.60
2018-01-18T02:19:13.690Z,6.20
2018-01-18T02:20:13.669Z,6.70
2018-01-18T02:21:13.648Z,6.20
2018-01-18T02:22:13.625Z,6.70
2018-01-18T02:23:13.601Z,6.10
2018-01-18T02:24:13.590Z,7.30
2018-01-18T02:25:13.560Z,7.80
2018-01-18T02:26:13.535Z,7.40
2018-01-18T02:27:13.519Z,8.10
2018-01-18T02:28:13.504Z,7.30
2018-01-18T02:29:13.469Z,7.20
2018-01-18T02:30:13.446Z,6.90
2018-01-18T02:31:13.426Z,7.20
2018-01-18T02:32:13.410Z,7.30
2018-01-18T02:33:13.380Z,8.00
2018-01-18T02:34:13.357Z,7.80
2018-01-18T02:35:13.340Z,6.90
2018-01-18T02:36:13.321Z,7.20
2018-01-18T02:37:13.297Z,7.30
2018-01-18T02:38:13.270Z,6.60
2018-01-18T02:39:13.251Z,8.00
2018-01-18T02:40:13.228Z,8.10
2018-01-18T02:41:13.204Z,7.40
2018-01-18T02:42:13.181Z,6.90
2018-01-18T02:43:13.161Z,7.20
2018-01-18T02:44:13.138Z,6.50
2018-01-18T02:45:13.113Z,6.50
2018-01-18T02:46:13.096Z,7.70
2018-01-18T02:47:13.073Z,7.40
2018-01-18T02:48:13.048Z,6.70
2018-01-18T02:49:13.031Z,7.70
2018-01-18T02:50:13.005Z,7.20
2018-01-18T02:51:12.981Z,7.80
2018-01-18T02:52:12.960Z,6.50
2018-01-18T02:53:12.951Z,7.20
2018-01-18T02:54:12.916Z,7.30
2018-01-18T02:55:12.899Z,6.70
2018-01-18T02:56:12.873Z,7.30
2018-01-18T02:57:12.848Z,6.70
2018-01-18T02:58:12.824Z,7.00
2018-01-18T02:59:12.808Z,7.10
2018-01-18T03:00:12.778Z,5.80
2018-01-18T03:01:12.760Z,5.70
2018-01-18T03:02:12.740Z,6.20
2018-01-18T03:03:12.715Z,6.00
2018-01-18T03:04:12.689Z,6.50
2018-01-18T03:05:12.667Z,5.60
2018-01-18T03:06:12.649Z,5.40
2018-01-18T03:07:12.623Z,5.70
2018-01-18T03:08:12.648Z,5.50
2018-01-18T03:09:12.579Z,5.20
2018-01-18T03:10:12.604Z,5.90
2018-01-18T03:11:12.533Z,6.10
2018-01-18T03:12:12.550Z,5.30
2018-01-18T03:13:12.489Z,5.90
2018-01-18T03:14:12.566Z,5.80
2018-01-18T03:15:12.444Z,5.50
2018-01-18T03:16:12.490Z,5.80
2018-01-18T03:17:12.399Z,5.20
2018-01-18T03:18:12.381Z,5.40
2018-01-18T03:19:12.355Z,5.30
2018-01-18T03:20:12.376Z,5.20
2018-01-18T03:21:12.313Z,5.30
2018-01-18T03:22:12.389Z,5.40
2018-01-18T03:23:12.268Z,6.40
2018-01-18T03:24:12.349Z,5.40
2018-01-18T03:25:12.229Z,5.90
2018-01-18T03:26:12.308Z,7.00
2018-01-18T03:27:12.179Z,5.90
2018-01-18T03:28:12.163Z,5.40
2018-01-18T03:29:12.136Z,5.50
2018-01-18T03:30:12.121Z,5.20
2018-01-18T03:31:12.092Z,6.10
2018-01-18T03:32:12.220Z,6.40
2018-01-18T03:33:12.045Z,6.60
2018-01-18T03:34:12.116Z,6.60
2018-01-18T03:35:12.011Z,6.60
2018-01-18T03:36:11.983Z,6.70
2018-01-18T03:37:11.957Z,6.60
2018-01-18T03:38:12.064Z,5.10
2018-01-18T03:39:11.915Z,6.40
2018-01-18T03:40:11.903Z,6.40
2018-01-18T03:41:11.871Z,5.60
2018-01-18T03:42:11.856Z,6.80
2018-01-18T03:43:11.824Z,6.80
2018-01-18T03:44:11.854Z,6.30
2018-01-18T03:45:11.780Z,6.40
2018-01-18T03:46:11.760Z,6.10
2018-01-18T03:47:11.739Z,6.30
2018-01-18T03:48:11.719Z,6.40
2018-01-18T03:49:11.691Z,6.40
2018-01-18T03:50:11.669Z,6.50
2018-01-18T03:51:11.649Z,6.30
2018-01-18T03:52:11.629Z,6.50
2018-01-18T03:53:11.601Z,6.60
2018-01-18T03:54:11.579Z,6.00
2018-01-18T03:55:11.564Z,7.10
2018-01-18T03:56:11.535Z,6.10
2018-01-18T03:57:11.522Z,5.40
2018-01-18T03:58:11.501Z,7.10
2018-01-18T03:59:11.471Z,6.10
2018-01-18T04:00:11.446Z,7.20
2018-01-18T04:01:11.429Z,6.50
2018-01-18T04:02:11.410Z,7.10
2018-01-18T04:03:11.381Z,6.70
2018-01-18T04:04:11.361Z,6.80
2018-01-18T04:05:11.342Z,5.80
2018-01-18T04:06:11.315Z,7.60
2018-01-18T04:07:11.291Z,6.80
2018-01-18T04:08:11.269Z,6.70
2018-01-18T04:09:11.250Z,6.60
2018-01-18T04:10:11.229Z,8.10
2018-01-18T04:11:11.209Z,7.00
2018-01-18T04:12:11.179Z,6.50
2018-01-18T04:13:11.163Z,6.90
2018-01-18T04:14:11.138Z,7.50
2018-01-18T04:15:11.116Z,6.90
2018-01-18T04:16:11.093Z,6.00
2018-01-18T04:17:11.071Z,6.30
2018-01-18T04:18:11.049Z,7.60
2018-01-18T04:19:11.029Z,7.20
2018-01-18T04:20:11.006Z,6.10
2018-01-18T04:21:10.983Z,7.00
2018-01-18T04:22:10.961Z,6.20
2018-01-18T04:23:10.938Z,5.50
2018-01-18T04:24:10.919Z,7.20
2018-01-18T04:25:10.896Z,6.20
2018-01-18T04:26:10.878Z,7.60
2018-01-18T04:27:10.847Z,6.10
2018-01-18T04:28:10.825Z,6.70
2018-01-18T04:29:10.805Z,6.60
2018-01-18T04:30:10.788Z,7.20
2018-01-18T04:31:10.766Z,6.80
2018-01-18T04:32:10.739Z,7.30
2018-01-18T04:33:10.713Z,7.10
2018-01-18T04:34:10.704Z,7.00
2018-01-18T04:35:10.674Z,7.10
2018-01-18T04:36:10.648Z,6.50
2018-01-18T04:37:10.629Z,6.80
2018-01-18T04:38:10.606Z,7.50
2018-01-18T04:39:10.581Z,7.60
2018-01-18T04:40:10.558Z,6.70
2018-01-18T04:41:10.538Z,7.60
2018-01-18T04:42:10.512Z,7.70
2018-01-18T04:43:10.491Z,6.90
2018-01-18T04:44:10.469Z,7.10
2018-01-18T04:45:10.450Z,6.80
2018-01-18T04:46:10.427Z,7.40
2018-01-18T04:47:10.409Z,6.10
2018-01-18T04:48:10.379Z,5.80
2018-01-18T04:49:10.355Z,6.90
2018-01-18T04:50:10.341Z,6.40
2018-01-18T04:51:10.318Z,5.80
2018-01-18T04:52:10.290Z,6.90
2018-01-18T04:53:10.270Z,5.30
2018-01-18T04:54:10.244Z,6.70
2018-01-18T04:55:10.228Z,6.40
2018-01-18T04:56:10.199Z,6.70
2018-01-18T04:57:10.182Z,6.70
2018-01-18T04:58:10.157Z,5.70
2018-01-18T04:59:10.133Z,5.60
2018-01-18T05:00:10.110Z,5.60
2018-01-18T05:01:10.089Z,5.10
2018-01-18T05:02:10.069Z,5.00
2018-01-18T05:03:10.044Z,5.50
2018-01-18T05:04:10.019Z,5.50
2018-01-18T05:05:09.997Z,4.30
2018-01-18T05:06:09.977Z,5.80
2018-01-18T05:07:09.958Z,5.10
2018-01-18T05:08:09.930Z,3.80
2018-01-18T05:09:09.913Z,4.80
2018-01-18T05:10:09.891Z,5.30
2018-01-18T05:11:09.869Z,6.00
2018-01-18T05:12:09.839Z,5.30
2018-01-18T05:13:09.814Z,5.40
2018-01-18T05:14:09.801Z,3.90
2018-01-18T05:15:09.778Z,4.90
2018-01-18T05:16:09.753Z,5.30
2018-01-18T05:17:09.725Z,4.50
2018-01-18T05:18:09.709Z,4.00
2018-01-18T05:19:09.685Z,4.80
2018-01-18T05:20:09.661Z,4.40
2018-01-18T05:21:09.641Z,4.20
2018-01-18T05:22:09.621Z,4.10
2018-01-18T05:23:09.591Z,4.10
2018-01-18T05:24:09.569Z,3.90
2018-01-18T05:25:09.545Z,4.70
2018-01-18T05:26:09.527Z,3.90
2018-01-18T05:27:09.504Z,4.10
2018-01-18T05:28:09.488Z,3.90
2018-01-18T05:29:09.455Z,3.70
2018-01-18T05:30:09.437Z,3.90
2018-01-18T05:31:09.417Z,3.40
2018-01-18T05:32:09.396Z,3.80
2018-01-18T05:33:09.371Z,3.60
2018-01-18T05:34:09.344Z,3.00
2018-01-18T05:35:09.315Z,2.60
2018-01-18T05:36:09.293Z,3.10
2018-01-18T05:37:09.268Z,2.90
2018-01-18T05:38:09.249Z,3.50
2018-01-18T05:39:09.227Z,3.50
2018-01-18T05:40:09.204Z,2.70
2018-01-18T05:41:09.224Z,2.90
2018-01-18T05:42:09.153Z,3.50
2018-01-18T05:43:09.180Z,3.20
2018-01-18T05:44:09.114Z,3.00
2018-01-18T05:45:09.087Z,2.50
2018-01-18T05:46:09.064Z,2.70
2018-01-18T05:47:09.107Z,2.90
2018-01-18T05:48:09.063Z,2.40
2018-01-18T05:49:09.110Z,2.50
2018-01-18T05:50:08.983Z,2.70
2018-01-18T05:51:09.101Z,2.70
2018-01-18T05:52:08.930Z,2.80
2018-01-18T05:53:08.957Z,2.90
2018-01-18T05:54:08.879Z,2.70
2018-01-18T05:55:08.856Z,2.80
2018-01-18T05:56:08.834Z,2.40
2018-01-18T05:57:08.814Z,2.70
2018-01-18T05:58:08.788Z,2.40
2018-01-18T05:59:08.768Z,2.60
2018-01-18T06:00:08.742Z,2.30
2018-01-18T06:01:08.775Z,2.80
2018-01-18T06:02:08.695Z,2.80
2018-01-18T06:03:08.676Z,3.10
2018-01-18T06:04:08.647Z,2.70
2018-01-18T06:05:08.655Z,2.40
2018-01-18T06:06:08.617Z,2.70
2018-01-18T06:07:08.585Z,2.80
2018-01-18T06:08:08.559Z,3.00
2018-01-18T06:09:08.543Z,3.00
2018-01-18T06:10:08.511Z,3.10
2018-01-18T06:11:08.500Z,3.70
2018-01-18T06:12:08.470Z,3.20
2018-01-18T06:13:08.443Z,3.50
2018-01-18T06:14:08.421Z,3.60
2018-01-18T06:15:08.396Z,4.00
2018-01-18T06:16:08.379Z,3.80
2018-01-18T06:17:08.349Z,3.90
2018-01-18T06:18:08.330Z,4.10
2018-01-18T06:19:08.311Z,3.60
2018-01-18T06:20:08.287Z,3.50
2018-01-18T06:21:08.263Z,3.70
2018-01-18T06:22:08.239Z,3.00
2018-01-18T06:23:08.224Z,3.20
2018-01-18T06:24:08.197Z,3.00
2018-01-18T06:25:08.179Z,2.90
2018-01-18T06:26:08.148Z,3.20
2018-01-18T06:27:08.120Z,3.10
2018-01-18T06:28:08.100Z,2.70
2018-01-18T06:29:08.084Z,2.00
2018-01-18T06:30:08.060Z,2.50
2018-01-18T06:31:08.035Z,3.40
2018-01-18T06:32:08.009Z,3.10
2018-01-18T06:33:07.985Z,3.00
2018-01-18T06:34:07.966Z,3.50
2018-01-18T06:35:07.952Z,2.90
2018-01-18T06:36:07.918Z,2.50
2018-01-18T06:37:07.898Z,2.90
2018-01-18T06:38:07.881Z,3.20
2018-01-18T06:39:07.849Z,2.90
2018-01-18T06:40:07.829Z,3.00
2018-01-18T06:41:07.803Z,2.30
2018-01-18T06:42:07.780Z,2.70
2018-01-18T06:43:07.758Z,2.50
2018-01-18T06:44:07.732Z,2.50
2018-01-18T06:45:07.708Z,2.90
2018-01-18T06:46:07.689Z,3.00
2018-01-18T06:47:07.669Z,3.60
2018-01-18T06:48:07.742Z,3.30
2018-01-18T06:49:07.621Z,4.00
2018-01-18T06:50:07.599Z,3.90
2018-01-18T06:51:07.580Z,3.00
2018-01-18T06:52:07.552Z,3.60
2018-01-18T06:53:07.526Z,3.30
2018-01-18T06:54:07.520Z,3.10
2018-01-18T06:55:07.488Z,3.30
2018-01-18T06:56:07.456Z,3.50
2018-01-18T06:57:07.435Z,3.90
2018-01-18T06:58:07.413Z,3.80
2018-01-18T06:59:07.393Z,3.60
2018-01-18T07:00:07.382Z,3.90
2018-01-18T07:01:07.344Z,3.10
2018-01-18T07:02:07.322Z,3.30
2018-01-18T07:03:07.309Z,3.40
2018-01-18T07:04:07.277Z,3.20
2018-01-18T07:05:07.259Z,3.60
2018-01-18T07:06:07.255Z,3.90
2018-01-18T07:07:07.211Z,3.70
2018-01-18T07:08:07.189Z,4.00
2018-01-18T07:09:07.165Z,4.00
2018-01-18T07:10:07.144Z,4.10
2018-01-18T07:11:07.124Z,4.60
2018-01-18T07:12:07.105Z,5.00
2018-01-18T07:13:07.076Z,4.20
2018-01-18T07:14:07.060Z,3.90
2018-01-18T07:15:07.039Z,4.60
2018-01-18T07:16:07.009Z,4.90
2018-01-18T07:17:06.990Z,5.20
2018-01-18T07:18:06.968Z,3.90
2018-01-18T07:19:06.942Z,4.90
2018-01-18T07:20:06.919Z,4.30
2018-01-18T07:21:06.896Z,3.50
2018-01-18T07:22:06.875Z,4.40
2018-01-18T07:23:06.860Z,4.00
2018-01-18T07:24:06.828Z,4.70
2018-01-18T07:25:06.810Z,4.10
2018-01-18T07:26:06.784Z,5.30
2018-01-18T07:27:06.767Z,4.70
2018-01-18T07:28:06.738Z,4.10
2018-01-18T07:29:06.720Z,3.70
2018-01-18T07:30:06.699Z,4.30
2018-01-18T07:31:06.679Z,3.60
2018-01-18T07:32:06.650Z,4.20
2018-01-18T07:33:06.632Z,3.50
2018-01-18T07:34:06.619Z,4.50
2018-01-18T07:35:06.586Z,4.60
2018-01-18T07:36:06.561Z,4.00
2018-01-18T07:37:06.540Z,4.50
2018-01-18T07:38:06.530Z,5.00
2018-01-18T07:39:06.508Z,4.70
2018-01-18T07:40:06.479Z,3.50
2018-01-18T07:41:06.453Z,4.40
2018-01-18T07:42:06.434Z,4.30
2018-01-18T07:43:06.410Z,4.20
2018-01-18T07:44:06.389Z,3.50
2018-01-18T07:45:06.366Z,4.60
2018-01-18T07:46:06.351Z,4.50
2018-01-18T07:47:06.330Z,3.90
2018-01-18T07:48:06.296Z,3.80
2018-01-18T07:49:06.280Z,4.10
2018-01-18T07:50:06.259Z,4.30
2018-01-18T07:51:06.240Z,4.30
2018-01-18T07:52:06.213Z,3.80
2018-01-18T07:53:06.189Z,4.00
2018-01-18T07:54:06.169Z,3.90
2018-01-18T07:55:06.148Z,4.60
2018-01-18T07:56:06.127Z,3.90
2018-01-18T07:57:06.104Z,3.60
2018-01-18T07:58:06.082Z,4.40
2018-01-18T07:59:06.064Z,4.70
2018-01-18T08:00:06.040Z,4.90
2018-01-18T08:01:06.022Z,4.50
2018-01-18T08:02:06.000Z,4.30
2018-01-18T08:03:05.977Z,3.60
2018-01-18T08:04:06.006Z,3.40
2018-01-18T08:05:05.944Z,3.40
2018-01-18T08:06:05.912Z,3.80
2018-01-18T08:07:05.890Z,4.30
2018-01-18T08:08:05.871Z,3.60
2018-01-18T08:09:05.853Z,3.70
2018-01-18T08:10:05.833Z,4.50
2018-01-18T08:11:05.802Z,5.00
2018-01-18T08:12:05.840Z,3.50
2018-01-18T08:13:05.761Z,4.40
2018-01-18T08:14:05.791Z,4.50
2018-01-18T08:15:05.720Z,4.10
2018-01-18T08:16:05.859Z,4.20
2018-01-18T08:17:05.679Z,4.00
2018-01-18T08:18:05.807Z,4.20
2018-01-18T08:19:05.635Z,4.20
2018-01-18T08:20:05.720Z,4.70
2018-01-18T08:21:05.590Z,4.50
2018-01-18T08:22:05.571Z,4.40
2018-01-18T08:23:05.552Z,4.00
2018-01-18T08:24:05.530Z,4.00
2018-01-18T08:25:05.509Z,4.20
2018-01-18T08:26:05.641Z,3.10
2018-01-18T08:27:05.470Z,4.00
2018-01-18T08:28:05.536Z,4.60
2018-01-18T08:29:05.429Z,3.60
2018-01-18T08:30:05.491Z,3.90
2018-01-18T08:31:05.393Z,3.40
2018-01-18T08:32:05.369Z,3.90
2018-01-18T08:33:05.339Z,3.90
2018-01-18T08:34:05.321Z,3.50
2018-01-18T08:35:05.299Z,3.50
2018-01-18T08:36:05.383Z,3.80
2018-01-18T08:37:05.257Z,3.40
2018-01-18T08:38:05.364Z,3.40
2018-01-18T08:39:05.218Z,3.80
2018-01-18T08:40:05.309Z,3.20
2018-01-18T08:41:05.177Z,3.30
2018-01-18T08:42:05.155Z,3.60
2018-01-18T08:43:05.138Z,3.60
2018-01-18T08:44:05.114Z,3.00
2018-01-18T08:45:05.098Z,3.70
2018-01-18T08:46:05.078Z,3.40
2018-01-18T08:47:05.056Z,3.40
2018-01-18T08:48:05.061Z,3.80
2018-01-18T08:49:05.012Z,4.30
2018-01-18T08:50:05.009Z,3.40
2018-01-18T08:51:04.978Z,4.10
2018-01-18T08:52:04.958Z,3.60
2018-01-18T08:53:04.938Z,3.90
2018-01-18T08:54:04.918Z,4.50
2018-01-18T08:55:04.899Z,4.40
2018-01-18T08:56:04.874Z,3.50
2018-01-18T08:57:04.855Z,4.20
2018-01-18T08:58:04.839Z,3.80
2018-01-18T08:59:04.818Z,4.20
2018-01-18T09:00:04.798Z,4.00
2018-01-18T09:01:04.781Z,4.10
2018-01-18T09:02:04.756Z,5.10
2018-01-18T09:03:04.741Z,3.90
2018-01-18T09:04:04.723Z,3.50
2018-01-18T09:05:04.699Z,3.50
2018-01-18T09:06:04.680Z,3.70
2018-01-18T09:07:04.669Z,4.30
2018-01-18T09:08:04.639Z,3.50
2018-01-18T09:09:04.619Z,4.00
2018-01-18T09:10:04.604Z,4.80
2018-01-18T09:11:04.590Z,4.50
2018-01-18T09:12:04.562Z,3.60
2018-01-18T09:13:04.537Z,3.70
2018-01-18T09:14:04.518Z,4.30
2018-01-18T09:15:04.497Z,3.80
2018-01-18T09:16:04.476Z,3.70
2018-01-18T09:17:04.453Z,3.80
2018-01-18T09:18:04.440Z,3.40
2018-01-18T09:19:04.418Z,4.60
2018-01-18T09:20:04.392Z,3.90
2018-01-18T09:21:04.371Z,3.40
2018-01-18T09:22:04.603Z,4.10
2018-01-18T09:23:04.335Z,3.60
2018-01-18T09:24:04.320Z,3.60
2018-01-18T09:25:04.296Z,3.80
2018-01-18T09:26:04.273Z,3.70
2018-01-18T09:27:04.253Z,4.50
2018-01-18T09:28:04.290Z,3.40
2018-01-18T09:29:04.217Z,4.60
2018-01-18T09:30:04.195Z,4.20
2018-01-18T09:31:04.174Z,3.80
2018-01-18T09:32:04.160Z,4.30
2018-01-18T09:33:04.138Z,5.40
2018-01-18T09:34:04.169Z,4.10
2018-01-18T09:35:04.091Z,5.10
2018-01-18T09:36:04.075Z,5.00
2018-01-18T09:37:04.056Z,5.30
2018-01-18T09:38:04.038Z,4.80
2018-01-18T09:39:04.026Z,4.50
2018-01-18T09:40:03.992Z,5.10
2018-01-18T09:41:03.977Z,4.60
2018-01-18T09:42:03.956Z,4.70
2018-01-18T09:43:03.938Z,5.20
2018-01-18T09:44:03.915Z,4.90
2018-01-18T09:45:03.901Z,5.10
2018-01-18T09:46:03.877Z,4.60
2018-01-18T09:47:03.859Z,5.30
2018-01-18T09:48:03.840Z,4.40
2018-01-18T09:49:03.818Z,5.00
2018-01-18T09:50:03.802Z,4.20
2018-01-18T09:51:03.783Z,5.90
2018-01-18T09:52:03.764Z,4.50
2018-01-18T09:53:03.744Z,3.40
2018-01-18T09:54:03.734Z,3.40
2018-01-18T09:55:03.707Z,3.50
2018-01-18T09:56:03.694Z,3.40
2018-01-18T09:57:03.669Z,3.20
2018-01-18T09:58:03.659Z,3.60
2018-01-18T09:59:03.634Z,3.40
2018-01-18T10:00:03.619Z,3.10
2018-01-18T10:01:03.604Z,3.40
2018-01-18T10:02:03.580Z,2.80
2018-01-18T10:03:03.560Z,3.30
2018-01-18T10:04:03.534Z,2.80
2018-01-18T10:05:03.520Z,3.30
2018-01-18T10:06:03.500Z,3.20
2018-01-18T10:07:03.484Z,3.00
2018-01-18T10:08:03.468Z,3.20
2018-01-18T10:09:03.447Z,3.10
2018-01-18T10:10:03.418Z,2.90
2018-01-18T10:11:03.414Z,3.10
2018-01-18T10:12:03.380Z,2.60
2018-01-18T10:13:03.359Z,2.90
2018-01-18T10:14:03.336Z,3.30
2018-01-18T10:15:03.317Z,3.90
2018-01-18T10:16:03.294Z,3.50
2018-01-18T10:17:03.280Z,3.70
2018-01-18T10:18:03.259Z,3.30
2018-01-18T10:19:03.238Z,3.10
2018-01-18T10:20:03.221Z,3.40
2018-01-18T10:21:03.200Z,2.80
2018-01-18T10:22:03.183Z,3.40
2018-01-18T10:23:03.156Z,2.90
2018-01-18T10:24:03.155Z,3.50
2018-01-18T10:25:03.144Z,2.80
2018-01-18T10:26:03.111Z,2.60
2018-01-18T10:27:03.081Z,3.10
2018-01-18T10:28:03.058Z,3.30
2018-01-18T10:29:03.038Z,3.60
2018-01-18T10:30:03.014Z,3.50
2018-01-18T10:31:02.996Z,3.40
2018-01-18T10:32:02.969Z,3.40
2018-01-18T10:33:02.958Z,3.20
2018-01-18T10:34:02.934Z,3.40
2018-01-18T10:35:03.019Z,3.60
2018-01-18T10:36:02.888Z,3.60
2018-01-18T10:37:02.869Z,3.30
2018-01-18T10:38:02.849Z,3.20
2018-01-18T10:39:02.834Z,3.10
2018-01-18T10:40:02.809Z,2.90
2018-01-18T10:41:02.788Z,2.50
2018-01-18T10:42:02.771Z,2.80
2018-01-18T10:43:02.750Z,2.20
2018-01-18T10:44:02.725Z,2.10
2018-01-18T10:45:02.709Z,2.60
2018-01-18T10:46:02.686Z,2.50
2018-01-18T10:47:02.675Z,2.60
2018-01-18T10:48:02.642Z,2.70
2018-01-18T10:49:02.628Z,2.50
2018-01-18T10:50:02.611Z,2.20
2018-01-18T10:51:02.583Z,2.40
2018-01-18T10:52:02.563Z,2.40
2018-01-18T10:53:02.539Z,2.30
2018-01-18T10:54:02.519Z,2.20
2018-01-18T10:55:02.513Z,2.40
2018-01-18T10:56:02.489Z,2.50
2018-01-18T10:57:02.457Z,2.30
2018-01-18T10:58:02.442Z,2.40
2018-01-18T10:59:02.417Z,2.30
2018-01-18T11:00:02.400Z,2.80
2018-01-18T11:01:02.379Z,2.50
2018-01-18T11:02:02.362Z,2.60
2018-01-18T11:03:02.331Z,2.30
2018-01-18T11:04:02.314Z,2.50
2018-01-18T11:05:02.297Z,2.70
2018-01-18T11:06:02.269Z,2.00
2018-01-18T11:07:02.251Z,2.30
2018-01-18T11:08:02.229Z,2.30
2018-01-18T11:09:02.211Z,2.80
2018-01-18T11:10:02.189Z,2.80
2018-01-18T11:11:02.172Z,2.40
2018-01-18T11:12:02.141Z,2.50
2018-01-18T11:13:02.121Z,2.60
2018-01-18T11:14:02.110Z,2.80
2018-01-18T11:15:02.130Z,2.90
2018-01-18T11:16:02.063Z,2.80
2018-01-18T11:17:02.041Z,2.70
2018-01-18T11:18:02.019Z,2.30
2018-01-18T11:19:02.004Z,2.60
2018-01-18T11:20:01.976Z,2.30
2018-01-18T11:21:01.960Z,2.50
2018-01-18T11:22:01.940Z,2.50
2018-01-18T11:23:01.924Z,2.30
2018-01-18T11:24:01.891Z,2.60
2018-01-18T11:25:01.871Z,3.30
2018-01-18T11:26:01.851Z,4.20
2018-01-18T11:27:01.829Z,3.80
2018-01-18T11:28:01.809Z,4.40
2018-01-18T11:29:01.796Z,2.40
2018-01-18T11:30:01.761Z,3.10
2018-01-18T11:31:01.741Z,4.10
2018-01-18T11:32:01.717Z,4.90
2018-01-18T11:33:01.701Z,6.10
2018-01-18T11:34:01.680Z,3.40
2018-01-18T11:35:01.661Z,5.00
2018-01-18T11:36:01.632Z,5.50
2018-01-18T11:37:01.620Z,3.50
2018-01-18T11:38:01.592Z,3.40
2018-01-18T11:39:01.572Z,3.30
2018-01-18T11:40:01.571Z,4.50
2018-01-18T11:41:01.528Z,3.40
2018-01-18T11:42:01.511Z,3.40
2018-01-18T11:43:01.495Z,3.30
2018-01-18T11:44:01.469Z,2.90
2018-01-18T11:45:01.458Z,2.60
2018-01-18T11:46:01.431Z,3.20
2018-01-18T11:47:01.407Z,4.60
2018-01-18T11:48:01.384Z,5.50
2018-01-18T11:49:01.361Z,3.20
2018-01-18T11:50:01.341Z,3.70
2018-01-18T11:51:01.320Z,4.40
2018-01-18T11:52:01.307Z,3.60
2018-01-18T11:53:01.277Z,2.80
2018-01-18T11:54:01.257Z,2.60
2018-01-18T11:55:01.254Z,2.30
2018-01-18T11:56:01.266Z,3.80
2018-01-18T11:57:01.196Z,3.70
2018-01-18T11:58:01.177Z,4.40
2018-01-18T11:59:01.161Z,2.80
2018-01-18T12:00:01.142Z,3.20
2018-01-18T12:01:01.120Z,2.80
2018-01-18T12:02:01.090Z,1.70
2018-01-18T12:03:01.071Z,2.10
2018-01-18T12:04:01.049Z,1.90
2018-01-18T12:05:01.030Z,1.80
2018-01-18T12:06:01.008Z,3.00
2018-01-18T12:07:00.991Z,2.30
2018-01-18T12:08:00.969Z,1.90
2018-01-18T12:09:00.944Z,2.10
2018-01-18T12:10:00.931Z,2.60
2018-01-18T12:11:00.906Z,2.20
2018-01-18T12:12:00.892Z,2.00
2018-01-18T12:13:00.870Z,2.10
2018-01-18T12:14:00.867Z,1.90
2018-01-18T12:15:00.830Z,1.90
2018-01-18T12:16:00.808Z,1.70
2018-01-18T12:17:00.783Z,1.90
2018-01-18T12:18:00.761Z,2.00
2018-01-18T12:19:00.751Z,1.70
2018-01-18T12:20:00.724Z,1.80
2018-01-18T12:21:00.700Z,2.00
2018-01-18T12:22:00.681Z,1.90
2018-01-18T12:23:00.660Z,1.50
2018-01-18T12:24:00.652Z,1.80
2018-01-18T12:25:00.628Z,1.80
2018-01-18T12:26:00.599Z,1.80
2018-01-18T12:27:00.581Z,1.90
2018-01-18T12:28:00.569Z,1.70
2018-01-18T12:29:00.544Z,1.60
2018-01-18T12:30:00.520Z,1.60
2018-01-18T12:31:00.500Z,1.60
2018-01-18T12:32:00.474Z,1.60
2018-01-18T12:33:00.464Z,1.50
2018-01-18T12:34:00.438Z,1.90
2018-01-18T12:35:00.432Z,1.70
2018-01-18T12:36:00.392Z,1.50
2018-01-18T12:37:00.372Z,1.70
2018-01-18T12:38:00.351Z,1.90
2018-01-18T12:39:00.333Z,1.80
2018-01-18T12:40:00.310Z,1.80
2018-01-18T12:41:00.290Z,1.30
2018-01-18T12:42:00.272Z,1.60
2018-01-18T12:43:00.253Z,1.50
2018-01-18T12:44:00.231Z,1.40
2018-01-18T12:45:00.225Z,1.30
2018-01-18T12:46:00.187Z,2.10
2018-01-18T12:47:00.172Z,1.70
2018-01-18T12:48:00.153Z,1.60
2018-01-18T12:49:00.128Z,1.60
2018-01-18T12:50:00.108Z,1.70
2018-01-18T12:51:00.089Z,1.80
2018-01-18T12:52:00.066Z,1.80
2018-01-18T12:53:00.044Z,1.70
2018-01-18T12:54:00.021Z,1.70
2018-01-18T12:55:00.005Z,1.50
2018-01-18T12:55:59.979Z,1.60
2018-01-18T12:56:59.963Z,1.60
2018-01-18T12:57:59.945Z,1.50
2018-01-18T12:58:59.923Z,1.60
2018-01-18T12:59:59.916Z,1.80
2018-01-18T13:00:59.883Z,1.90
2018-01-18T13:01:59.860Z,1.60
2018-01-18T13:02:59.839Z,1.90
2018-01-18T13:03:59.816Z,1.50
2018-01-18T13:04:59.811Z,1.40
2018-01-18T13:05:59.774Z,2.00
2018-01-18T13:06:59.769Z,1.70
2018-01-18T13:07:59.734Z,1.30
2018-01-18T13:08:59.710Z,1.60
2018-01-18T13:09:59.704Z,1.60
2018-01-18T13:10:59.672Z,1.90
2018-01-18T13:11:59.649Z,1.70
2018-01-18T13:12:59.631Z,1.60
2018-01-18T13:13:59.613Z,1.40
2018-01-18T13:14:59.596Z,2.10
2018-01-18T13:15:59.582Z,1.80
2018-01-18T13:16:59.558Z,1.50
2018-01-18T13:17:59.530Z,1.60